createdAt,value
2023-05-17T00:00:37.653Z,82.83
2023-05-17T00:03:04.184Z,83.06
2023-05-17T00:05:30.883Z,83.31
2023-05-17T00:07:57.353Z,83.60
2023-05-17T00:10:23.832Z,83.56
2023-05-17T00:12:52.972Z,83.85
2023-05-17T00:15:19.479Z,83.78
2023-05-17T00:17:46.091Z,83.98
2023-05-17T00:20:12.943Z,84.08
2023-05-17T00:22:40.872Z,84.30
2023-05-17T00:25:08.342Z,84.26
2023-05-17T00:27:34.922Z,83.88
2023-05-17T00:30:01.404Z,83.74
2023-05-17T00:32:28.183Z,83.95
2023-05-17T00:34:54.808Z,83.90
2023-05-17T00:37:21.303Z,84.17
2023-05-17T00:39:47.843Z,84.22
2023-05-17T00:42:14.712Z,84.14
2023-05-17T00:44:41.185Z,83.87
2023-05-17T00:47:07.715Z,84.31
2023-05-17T00:49:37.112Z,84.03
2023-05-17T00:52:04.230Z,84.28
2023-05-17T00:54:31.483Z,84.21
2023-05-17T00:57:01.332Z,84.45
2023-05-17T00:59:29.586Z,84.28
2023-05-17T01:01:56.459Z,84.68
2023-05-17T01:04:23.178Z,84.78
2023-05-17T01:06:52.099Z,84.45
2023-05-17T01:09:18.977Z,84.92
2023-05-17T01:12:18.854Z,84.81
2023-05-17T01:15:03.387Z,84.63
2023-05-17T01:17:48.465Z,84.39
2023-05-17T01:20:23.666Z,84.82
2023-05-17T01:23:24.421Z,85.06
2023-05-17T01:26:21.842Z,85.04
2023-05-17T01:28:53.988Z,85.33
2023-05-17T01:31:20.971Z,85.16
2023-05-17T01:33:50.527Z,85.37
2023-05-17T01:36:17.084Z,85.33
2023-05-17T01:38:43.510Z,85.62
2023-05-17T01:41:21.786Z,85.78
2023-05-17T01:43:54.812Z,85.93
2023-05-17T01:46:32.055Z,85.83
2023-05-17T01:49:30.909Z,85.94
2023-05-17T01:52:19.345Z,85.94
2023-05-17T01:55:05.606Z,86.04
2023-05-17T01:57:35.367Z,86.12
2023-05-17T02:00:06.252Z,85.96
2023-05-17T02:02:32.785Z,86.03
2023-05-17T02:04:59.529Z,86.41
2023-05-17T02:07:26.027Z,86.08
2023-05-17T02:09:52.539Z,86.60
2023-05-17T02:12:19.060Z,87.06
2023-05-17T02:14:45.605Z,86.67
2023-05-17T02:17:12.185Z,87.19
2023-05-17T02:19:38.599Z,87.13
2023-05-17T02:22:05.062Z,87.34
2023-05-17T02:24:31.548Z,87.33
2023-05-17T02:26:58.288Z,87.58
2023-05-17T02:29:24.745Z,87.70
2023-05-17T02:31:51.258Z,87.80
2023-05-17T02:34:17.776Z,87.62
2023-05-17T02:36:44.567Z,88.03
2023-05-17T02:39:11.043Z,88.07
2023-05-17T02:41:37.557Z,88.59
2023-05-17T02:44:04.358Z,88.08
2023-05-17T02:46:31.056Z,88.36
2023-05-17T02:48:57.541Z,88.37
2023-05-17T02:51:24.034Z,88.35
2023-05-17T02:53:50.640Z,88.65
2023-05-17T02:56:17.163Z,88.60
2023-05-17T02:58:43.683Z,88.77
2023-05-17T03:01:10.335Z,88.55
2023-05-17T03:03:37.037Z,88.63
2023-05-17T03:06:04.815Z,88.85
2023-05-17T03:08:31.565Z,88.99
2023-05-17T03:10:58.107Z,88.94
2023-05-17T03:13:25.936Z,88.76
2023-05-17T03:15:52.493Z,88.56
2023-05-17T03:18:19.073Z,88.55
2023-05-17T03:20:45.748Z,87.74
2023-05-17T03:23:12.220Z,86.73
2023-05-17T03:25:38.899Z,85.13
2023-05-17T03:28:05.411Z,84.47
2023-05-17T03:30:32.160Z,83.86
2023-05-17T03:32:58.796Z,83.28
2023-05-17T03:35:25.554Z,82.83
2023-05-17T03:37:52.095Z,82.18
2023-05-17T03:40:18.761Z,82.04
2023-05-17T03:42:45.877Z,81.52
2023-05-17T03:45:13.066Z,81.42
2023-05-17T03:47:39.806Z,81.01
2023-05-17T03:50:06.919Z,80.92
2023-05-17T03:52:33.405Z,80.78
2023-05-17T03:54:59.949Z,80.30
2023-05-17T03:57:29.168Z,80.50
2023-05-17T03:59:55.999Z,80.31
2023-05-17T04:02:24.791Z,79.94
2023-05-17T04:04:53.165Z,80.46
2023-05-17T04:07:19.853Z,79.93
2023-05-17T04:09:47.630Z,79.96
2023-05-17T04:12:16.196Z,79.74
2023-05-17T04:14:45.474Z,79.71
2023-05-17T04:17:12.105Z,79.81
2023-05-17T04:19:40.537Z,79.57
2023-05-17T04:22:07.102Z,79.72
2023-05-17T04:24:33.520Z,79.95
2023-05-17T04:27:02.745Z,79.60
2023-05-17T04:29:30.450Z,79.47
2023-05-17T04:31:56.865Z,79.80
2023-05-17T04:34:26.695Z,79.76
2023-05-17T04:36:53.329Z,79.72
2023-05-17T04:39:20.732Z,79.97
2023-05-17T04:41:49.823Z,79.83
2023-05-17T04:44:17.146Z,79.45
2023-05-17T04:46:45.905Z,79.75
2023-05-17T04:49:12.374Z,79.66
2023-05-17T04:51:39.059Z,79.57
2023-05-17T04:54:08.474Z,79.35
2023-05-17T04:56:36.678Z,78.84
2023-05-17T04:59:03.628Z,79.02
2023-05-17T05:01:30.957Z,78.97
2023-05-17T05:03:58.621Z,78.99
2023-05-17T05:06:25.513Z,78.78
2023-05-17T05:08:52.566Z,78.84
2023-05-17T05:11:19.269Z,78.66
2023-05-17T05:13:45.778Z,78.14
2023-05-17T05:16:12.357Z,78.10
2023-05-17T05:18:39.078Z,77.80
2023-05-17T05:21:05.875Z,77.81
2023-05-17T05:23:32.477Z,77.17
2023-05-17T05:25:58.965Z,76.90
2023-05-17T05:28:26.604Z,76.20
2023-05-17T05:31:00.357Z,76.22
2023-05-17T05:33:27.216Z,76.07
2023-05-17T05:35:53.813Z,75.35
2023-05-17T05:38:20.365Z,75.27
2023-05-17T05:40:48.148Z,74.99
2023-05-17T05:43:15.825Z,73.57
2023-05-17T05:45:45.984Z,71.84
2023-05-17T05:48:18.803Z,71.08
2023-05-17T05:50:45.398Z,70.39
2023-05-17T05:53:18.939Z,68.76
2023-05-17T05:55:46.498Z,67.13
2023-05-17T05:58:12.912Z,64.41
2023-05-17T06:00:39.390Z,62.76
2023-05-17T06:03:06.796Z,61.15
2023-05-17T06:05:33.784Z,58.24
2023-05-17T06:08:00.381Z,53.67
2023-05-17T06:10:27.219Z,47.92
2023-05-17T06:12:54.125Z,47.45
2023-05-17T06:15:20.618Z,48.12
2023-05-17T06:17:47.303Z,48.72
2023-05-17T06:20:15.022Z,49.64
2023-05-17T06:22:41.473Z,49.60
2023-05-17T06:25:08.170Z,50.81
2023-05-17T06:27:35.048Z,50.83
2023-05-17T06:30:02.250Z,50.60
2023-05-17T06:32:29.316Z,50.03
2023-05-17T06:34:56.479Z,49.44
2023-05-17T06:37:23.566Z,50.07
2023-05-17T06:40:00.161Z,51.05
2023-05-17T06:42:36.096Z,51.61
2023-05-17T06:45:02.795Z,52.14
2023-05-17T06:47:30.247Z,52.34
2023-05-17T06:49:56.764Z,52.85
2023-05-17T06:52:23.845Z,53.11
2023-05-17T06:54:53.389Z,51.51
2023-05-17T06:57:19.865Z,52.00
2023-05-17T06:59:48.716Z,51.24
2023-05-17T07:02:15.174Z,50.99
2023-05-17T07:04:41.747Z,50.76
2023-05-17T07:07:08.180Z,50.55
2023-05-17T07:09:34.770Z,49.88
2023-05-17T07:12:01.333Z,48.70
2023-05-17T07:14:27.929Z,47.44
2023-05-17T07:16:54.392Z,45.22
2023-05-17T07:19:20.901Z,45.05
2023-05-17T07:21:47.477Z,45.04
2023-05-17T07:24:14.013Z,44.30
2023-05-17T07:26:40.590Z,44.16
2023-05-17T07:29:07.128Z,44.74
2023-05-17T07:31:33.687Z,44.97
2023-05-17T07:34:00.576Z,44.57
2023-05-17T07:36:30.563Z,43.78
2023-05-17T07:38:58.321Z,43.27
2023-05-17T07:41:25.915Z,43.21
2023-05-17T07:43:52.417Z,43.05
2023-05-17T07:46:18.968Z,43.49
2023-05-17T07:48:46.699Z,43.42
2023-05-17T07:51:13.211Z,41.45
2023-05-17T07:53:39.800Z,42.16
2023-05-17T07:56:06.569Z,41.97
2023-05-17T07:58:33.078Z,41.74
2023-05-17T08:01:00.174Z,40.95
2023-05-17T08:03:28.649Z,39.83
2023-05-17T08:05:55.264Z,38.31
2023-05-17T08:08:22.049Z,37.80
2023-05-17T08:10:49.237Z,36.94
2023-05-17T08:13:15.745Z,37.29
2023-05-17T08:15:42.302Z,37.05
2023-05-17T08:18:08.898Z,36.95
2023-05-17T08:20:38.929Z,36.01
2023-05-17T08:23:05.498Z,36.52
2023-05-17T08:25:32.203Z,36.69
2023-05-17T08:27:59.921Z,36.49
2023-05-17T08:30:29.410Z,35.94
2023-05-17T08:32:56.771Z,36.60
2023-05-17T08:35:24.978Z,36.22
2023-05-17T08:37:53.784Z,36.05
2023-05-17T08:40:23.477Z,35.93
2023-05-17T08:42:51.718Z,35.06
2023-05-17T08:45:18.952Z,35.53
2023-05-17T08:47:46.616Z,35.03
2023-05-17T08:50:14.323Z,34.96
2023-05-17T08:52:44.808Z,34.39
2023-05-17T08:55:16.354Z,34.78
2023-05-17T08:57:49.527Z,35.04
2023-05-17T09:00:21.793Z,35.18
2023-05-17T09:02:48.715Z,35.10
2023-05-17T09:05:16.667Z,34.87
2023-05-17T09:07:43.744Z,34.45
2023-05-17T09:10:10.659Z,34.60
2023-05-17T09:12:37.264Z,34.00
2023-05-17T09:15:24.003Z,33.66
2023-05-17T09:17:54.673Z,32.71
2023-05-17T09:20:25.709Z,32.53
2023-05-17T09:22:52.544Z,32.65
2023-05-17T09:25:20.607Z,32.63
2023-05-17T09:27:47.166Z,32.80
2023-05-17T09:30:13.739Z,31.90
2023-05-17T09:32:50.281Z,31.21
2023-05-17T09:35:16.952Z,31.06
2023-05-17T09:37:45.145Z,31.09
2023-05-17T09:40:22.241Z,31.00
2023-05-17T09:42:49.087Z,31.33
2023-05-17T09:45:22.257Z,31.28
2023-05-17T09:47:48.771Z,30.21
2023-05-17T09:50:20.393Z,30.07
2023-05-17T09:52:46.906Z,30.11
2023-05-17T09:55:13.555Z,30.80
2023-05-17T09:57:41.312Z,30.70
2023-05-17T10:00:12.004Z,30.18
2023-05-17T10:02:41.182Z,31.13
2023-05-17T10:05:11.491Z,29.58
2023-05-17T10:07:41.089Z,29.34
2023-05-17T10:10:09.113Z,29.98
2023-05-17T10:12:39.154Z,30.37
2023-05-17T10:15:06.713Z,30.67
2023-05-17T10:17:35.839Z,30.63
2023-05-17T10:20:06.822Z,30.84
2023-05-17T10:22:33.903Z,31.28
2023-05-17T10:25:00.816Z,29.26
2023-05-17T10:27:28.468Z,29.14
2023-05-17T10:29:55.724Z,28.35
2023-05-17T10:32:28.842Z,28.60
2023-05-17T10:35:09.583Z,28.59
2023-05-17T10:37:40.423Z,29.53
2023-05-17T10:40:14.952Z,29.24
2023-05-17T10:42:43.595Z,28.78
2023-05-17T10:45:12.611Z,29.28
2023-05-17T10:47:43.234Z,28.60
2023-05-17T10:50:13.107Z,28.83
2023-05-17T10:52:46.703Z,28.00
2023-05-17T10:55:13.266Z,28.76
2023-05-17T10:57:50.625Z,28.63
2023-05-17T11:00:21.453Z,29.14
2023-05-17T11:02:48.911Z,29.09
2023-05-17T11:05:29.516Z,29.11
2023-05-17T11:08:20.701Z,28.42
2023-05-17T11:11:10.244Z,28.42
2023-05-17T11:13:55.710Z,28.25
2023-05-17T11:16:34.328Z,28.86
2023-05-17T11:19:08.308Z,28.45
2023-05-17T11:21:36.066Z,28.38
2023-05-17T11:24:04.304Z,28.44
2023-05-17T11:26:37.309Z,28.45
2023-05-17T11:29:10.365Z,28.72
2023-05-17T11:31:43.921Z,28.87
2023-05-17T11:34:11.528Z,29.04
2023-05-17T11:36:54.959Z,29.71
2023-05-17T11:39:23.727Z,29.61
2023-05-17T11:41:52.512Z,29.60
2023-05-17T11:44:29.676Z,29.58
2023-05-17T11:47:07.020Z,28.99
2023-05-17T11:49:37.159Z,29.75
2023-05-17T11:52:07.272Z,29.55
2023-05-17T11:54:35.385Z,29.75
2023-05-17T11:57:04.988Z,29.72
2023-05-17T11:59:44.753Z,28.84
2023-05-17T12:02:27.298Z,28.89
2023-05-17T12:04:56.962Z,29.10
2023-05-17T12:07:24.578Z,29.05
2023-05-17T12:09:51.254Z,28.39
2023-05-17T12:12:20.721Z,28.33
2023-05-17T12:14:48.405Z,27.88
2023-05-17T12:17:24.801Z,28.01
2023-05-17T12:19:54.968Z,27.69
2023-05-17T12:22:21.829Z,26.92
2023-05-17T12:24:48.343Z,27.64
2023-05-17T12:27:14.795Z,27.17
2023-05-17T12:29:41.335Z,27.25
2023-05-17T12:32:10.202Z,27.32
2023-05-17T12:34:37.099Z,27.17
2023-05-17T12:37:09.062Z,27.11
2023-05-17T12:39:36.171Z,27.75
2023-05-17T12:42:02.991Z,27.61
2023-05-17T12:44:29.607Z,27.29
2023-05-17T12:46:57.626Z,27.42
2023-05-17T12:49:24.315Z,27.53
2023-05-17T12:51:51.024Z,27.64
2023-05-17T12:54:28.622Z,27.17
2023-05-17T12:56:55.642Z,27.74
2023-05-17T12:59:25.207Z,28.12
2023-05-17T13:01:56.954Z,28.31
2023-05-17T13:04:33.623Z,28.09
2023-05-17T13:07:02.536Z,28.47
2023-05-17T13:09:34.184Z,28.50
2023-05-17T13:12:06.210Z,27.80
2023-05-17T13:14:33.202Z,28.39
2023-05-17T13:16:59.830Z,28.64
2023-05-17T13:19:26.630Z,28.32
2023-05-17T13:21:53.138Z,28.83
2023-05-17T13:24:19.787Z,29.53
2023-05-17T13:26:46.293Z,28.70
2023-05-17T13:29:12.794Z,29.03
2023-05-17T13:31:41.584Z,28.61
2023-05-17T13:34:09.065Z,28.54
2023-05-17T13:36:35.677Z,29.05
2023-05-17T13:39:02.176Z,28.92
2023-05-17T13:41:28.736Z,29.38
2023-05-17T13:43:57.328Z,29.24
2023-05-17T13:46:23.733Z,29.23
2023-05-17T13:48:50.448Z,29.13
2023-05-17T13:51:17.070Z,29.59
2023-05-17T13:53:44.230Z,29.37
2023-05-17T13:56:10.869Z,28.89
2023-05-17T13:58:41.345Z,28.70
2023-05-17T14:01:07.784Z,28.94
2023-05-17T14:03:35.146Z,28.92
2023-05-17T14:06:04.024Z,28.83
2023-05-17T14:08:30.787Z,29.20
2023-05-17T14:10:57.285Z,29.75
2023-05-17T14:13:23.821Z,29.53
2023-05-17T14:15:50.388Z,29.34
2023-05-17T14:18:16.972Z,29.26
2023-05-17T14:20:43.569Z,29.48
2023-05-17T14:23:11.611Z,29.26
2023-05-17T14:25:38.166Z,29.91
2023-05-17T14:28:04.784Z,30.29
2023-05-17T14:30:31.913Z,29.87
2023-05-17T14:32:59.185Z,30.31
2023-05-17T14:35:25.790Z,30.15
2023-05-17T14:37:52.334Z,30.25
2023-05-17T14:40:18.838Z,30.09
2023-05-17T14:42:45.261Z,30.44
2023-05-17T14:45:12.150Z,30.75
2023-05-17T14:47:38.699Z,29.87
2023-05-17T14:50:05.831Z,30.46
2023-05-17T14:52:33.203Z,30.83
2023-05-17T14:54:59.833Z,30.32
2023-05-17T14:57:26.396Z,30.27
2023-05-17T14:59:55.706Z,30.76
2023-05-17T15:02:23.968Z,30.99
2023-05-17T15:04:50.673Z,31.31
2023-05-17T15:07:17.249Z,31.37
2023-05-17T15:09:44.280Z,31.18
2023-05-17T15:12:14.366Z,31.80
2023-05-17T15:14:42.988Z,31.66
2023-05-17T15:17:09.557Z,31.59
2023-05-17T15:19:36.190Z,31.53
2023-05-17T15:22:02.801Z,31.68
2023-05-17T15:24:29.631Z,31.98
2023-05-17T15:26:56.357Z,32.02
2023-05-17T15:29:22.934Z,31.53
2023-05-17T15:31:49.518Z,31.94
2023-05-17T15:34:16.031Z,32.56
2023-05-17T15:36:43.982Z,33.04
2023-05-17T15:39:11.017Z,32.99
2023-05-17T15:41:37.548Z,32.86
2023-05-17T15:44:05.431Z,32.73
2023-05-17T15:46:32.614Z,33.42
2023-05-17T15:48:59.233Z,33.64
2023-05-17T15:51:25.796Z,33.70
2023-05-17T15:53:52.387Z,33.54
2023-05-17T15:56:20.929Z,33.83
2023-05-17T15:58:47.673Z,34.38
2023-05-17T16:01:15.532Z,34.82
2023-05-17T16:03:42.270Z,35.50
2023-05-17T16:06:09.050Z,35.49
2023-05-17T16:08:35.535Z,35.48
2023-05-17T16:11:02.912Z,35.82
2023-05-17T16:13:29.645Z,36.20
2023-05-17T16:15:56.929Z,35.96
2023-05-17T16:18:23.554Z,35.89
2023-05-17T16:21:03.957Z,35.49
2023-05-17T16:23:30.581Z,35.59
2023-05-17T16:25:57.082Z,35.92
2023-05-17T16:28:23.860Z,36.26
2023-05-17T16:30:51.676Z,36.16
2023-05-17T16:33:20.485Z,35.68
2023-05-17T16:35:48.574Z,35.92
2023-05-17T16:38:15.603Z,35.70
2023-05-17T16:40:42.230Z,35.40
2023-05-17T16:43:08.857Z,35.90
2023-05-17T16:45:35.612Z,36.02
2023-05-17T16:48:02.152Z,36.23
2023-05-17T16:50:29.213Z,36.43
2023-05-17T16:52:55.883Z,36.32
2023-05-17T16:55:22.384Z,36.25
2023-05-17T16:57:48.794Z,36.38
2023-05-17T17:00:15.808Z,35.84
2023-05-17T17:02:43.241Z,36.35
2023-05-17T17:05:10.346Z,35.99
2023-05-17T17:07:41.166Z,36.08
2023-05-17T17:10:08.187Z,36.44
2023-05-17T17:12:34.672Z,36.55
2023-05-17T17:15:01.223Z,36.80
2023-05-17T17:17:29.474Z,36.57
2023-05-17T17:19:56.388Z,36.20
2023-05-17T17:22:22.820Z,36.46
2023-05-17T17:24:49.338Z,36.76
2023-05-17T17:27:15.768Z,36.53
2023-05-17T17:29:42.316Z,36.71
2023-05-17T17:32:08.935Z,37.02
2023-05-17T17:34:35.863Z,37.13
2023-05-17T17:37:02.360Z,37.18
2023-05-17T17:39:28.926Z,37.61
2023-05-17T17:41:55.835Z,37.78
2023-05-17T17:44:22.312Z,37.76
2023-05-17T17:46:49.237Z,37.75
2023-05-17T17:49:15.765Z,37.98
2023-05-17T17:51:42.261Z,38.04
2023-05-17T17:54:08.842Z,38.20
2023-05-17T17:56:35.769Z,38.22
2023-05-17T17:59:02.483Z,38.58
2023-05-17T18:01:33.784Z,38.35
2023-05-17T18:04:00.643Z,38.71
2023-05-17T18:06:29.707Z,38.80
2023-05-17T18:08:59.814Z,38.63
2023-05-17T18:11:26.300Z,38.85
2023-05-17T18:13:54.177Z,39.07
2023-05-17T18:16:22.136Z,38.91
2023-05-17T18:18:48.605Z,38.83
2023-05-17T18:21:16.052Z,38.70
2023-05-17T18:23:42.512Z,38.74
2023-05-17T18:26:09.028Z,38.73
2023-05-17T18:28:42.393Z,38.71
2023-05-17T18:31:09.492Z,38.55
2023-05-17T18:33:36.022Z,38.79
2023-05-17T18:36:02.821Z,38.80
2023-05-17T18:38:30.499Z,38.75
2023-05-17T18:40:56.975Z,38.98
2023-05-17T18:43:23.417Z,39.35
2023-05-17T18:45:50.904Z,39.39
2023-05-17T18:48:17.469Z,39.87
2023-05-17T18:50:44.047Z,39.83
2023-05-17T18:53:14.480Z,40.26
2023-05-17T18:55:43.793Z,40.54
2023-05-17T18:58:10.356Z,40.71
2023-05-17T19:00:38.570Z,41.30
2023-05-17T19:03:05.226Z,41.42
2023-05-17T19:05:31.938Z,41.85
2023-05-17T19:07:58.415Z,42.01
2023-05-17T19:10:25.013Z,42.51
2023-05-17T19:12:53.571Z,42.51
2023-05-17T19:15:20.647Z,42.66
2023-05-17T19:17:47.272Z,42.78
2023-05-17T19:20:13.950Z,43.10
2023-05-17T19:22:42.856Z,43.41
2023-05-17T19:25:14.279Z,43.49
2023-05-17T19:27:43.075Z,43.89
2023-05-17T19:30:09.845Z,44.06
2023-05-17T19:32:36.498Z,44.27
2023-05-17T19:35:04.593Z,44.46
2023-05-17T19:37:31.128Z,44.74
2023-05-17T19:39:59.280Z,45.07
2023-05-17T19:42:25.918Z,44.98
2023-05-17T19:44:52.352Z,45.32
2023-05-17T19:47:18.842Z,45.73
2023-05-17T19:49:45.433Z,46.01
2023-05-17T19:52:12.046Z,46.10
2023-05-17T19:54:38.567Z,46.11
2023-05-17T19:57:05.731Z,46.39
2023-05-17T19:59:32.442Z,46.57
2023-05-17T20:01:59.251Z,46.92
2023-05-17T20:04:25.725Z,46.74
2023-05-17T20:06:52.222Z,47.01
2023-05-17T20:09:18.759Z,47.00
2023-05-17T20:11:45.339Z,47.40
2023-05-17T20:14:12.340Z,47.51
2023-05-17T20:16:39.056Z,48.11
2023-05-17T20:19:06.936Z,48.07
2023-05-17T20:21:36.236Z,48.34
2023-05-17T20:24:04.024Z,48.41
2023-05-17T20:26:36.012Z,48.67
2023-05-17T20:29:07.910Z,49.03
2023-05-17T20:31:36.213Z,49.47
2023-05-17T20:34:04.166Z,49.41
2023-05-17T20:36:31.490Z,49.43
2023-05-17T20:38:58.034Z,49.02
2023-05-17T20:41:30.278Z,49.48
2023-05-17T20:43:56.847Z,49.57
2023-05-17T20:46:23.574Z,49.77
2023-05-17T20:48:50.555Z,50.11
2023-05-17T20:51:17.961Z,49.93
2023-05-17T20:53:46.178Z,50.08
2023-05-17T20:56:22.750Z,50.51
2023-05-17T20:58:49.284Z,50.42
2023-05-17T21:01:15.825Z,50.13
2023-05-17T21:03:43.207Z,50.48
2023-05-17T21:06:10.000Z,50.46
2023-05-17T21:08:39.752Z,50.30
2023-05-17T21:11:06.306Z,50.60
2023-05-17T21:13:32.800Z,50.13
2023-05-17T21:15:59.454Z,50.65
2023-05-17T21:18:26.376Z,50.67
2023-05-17T21:20:55.647Z,50.65
2023-05-17T21:23:22.072Z,50.40
2023-05-17T21:25:49.129Z,50.64
2023-05-17T21:28:15.861Z,50.87
2023-05-17T21:30:45.185Z,50.87
2023-05-17T21:33:11.759Z,50.62
2023-05-17T21:35:38.306Z,50.40
2023-05-17T21:38:04.808Z,51.10
2023-05-17T21:40:31.704Z,50.98
2023-05-17T21:42:58.435Z,50.80
2023-05-17T21:45:24.990Z,51.13
2023-05-17T21:47:51.610Z,50.69
2023-05-17T21:50:18.379Z,50.98
2023-05-17T21:52:44.994Z,51.29
2023-05-17T21:55:11.490Z,50.89
2023-05-17T21:57:38.109Z,50.93
2023-05-17T22:00:05.876Z,51.13
2023-05-17T22:02:34.663Z,51.15
2023-05-17T22:05:01.642Z,51.05
2023-05-17T22:07:29.520Z,51.43
2023-05-17T22:09:55.975Z,50.93
2023-05-17T22:12:25.444Z,51.36
2023-05-17T22:14:54.251Z,51.24
2023-05-17T22:17:29.582Z,51.51
2023-05-17T22:20:07.471Z,51.61
2023-05-17T22:22:34.083Z,51.46
2023-05-17T22:25:00.653Z,51.19
2023-05-17T22:27:27.209Z,51.57
2023-05-17T22:29:53.884Z,51.41
2023-05-17T22:32:20.645Z,51.88
2023-05-17T22:34:47.123Z,51.88
2023-05-17T22:37:13.644Z,52.07
2023-05-17T22:39:41.483Z,51.91
2023-05-17T22:42:08.755Z,52.02
2023-05-17T22:44:36.962Z,51.81
2023-05-17T22:47:08.820Z,51.76
2023-05-17T22:49:36.670Z,51.82
2023-05-17T22:52:07.926Z,52.38
2023-05-17T22:54:36.315Z,52.03
2023-05-17T22:57:04.242Z,52.06
2023-05-17T22:59:32.054Z,52.00
2023-05-17T23:01:59.021Z,52.18
2023-05-17T23:04:26.191Z,52.23
2023-05-17T23:06:54.026Z,52.25
2023-05-17T23:09:21.911Z,52.42
2023-05-17T23:11:49.934Z,52.31
2023-05-17T23:14:21.721Z,52.58
2023-05-17T23:16:51.342Z,52.51
2023-05-17T23:19:18.124Z,52.68
2023-05-17T23:21:46.399Z,52.98
2023-05-17T23:24:13.984Z,53.02
2023-05-17T23:26:43.901Z,53.22
2023-05-17T23:29:16.294Z,53.43
2023-05-17T23:31:47.672Z,53.54
2023-05-17T23:34:15.212Z,53.65
2023-05-17T23:36:41.985Z,53.79
2023-05-17T23:39:08.968Z,54.37
2023-05-17T23:41:37.726Z,54.41
2023-05-17T23:44:04.978Z,54.55
2023-05-17T23:46:33.578Z,54.88
2023-05-17T23:49:00.036Z,54.86
2023-05-17T23:51:26.612Z,54.99
2023-05-17T23:53:53.053Z,54.97
2023-05-17T23:56:19.871Z,54.84
2023-05-17T23:58:46.553Z,55.02
